Time;durP1;ratioP1;P1;durP2;ratioP2;P2;SDS_P1;SDS_P2;PMS_P1;PMS_P2;Temp;Humidity;BMP_temperature;BMP_pressure;BME280_temperature;BME280_humidity;BME280_pressure;Samples;Min_cycle;Max_cycle;Signal;HPM_P1;HPM_P2
2022/03/25 00:00:14;;;;;;;15.13;9.63;;;;;;;;;;5031678;28;20203;-77
2022/03/25 00:02:43;;;;;;;10.30;8.63;;;;;;;;;;5032401;28;20199;-78
2022/03/25 00:05:11;;;;;;;13.60;9.00;;;;;;;;;;5031699;28;20253;-78
2022/03/25 00:07:38;;;;;;;11.70;8.80;;;;;;;;;;5031665;28;20285;-78
2022/03/25 00:10:07;;;;;;;13.37;8.97;;;;;;;;;;5031462;28;20284;-78
2022/03/25 00:12:34;;;;;;;12.20;8.30;;;;;;;;;;5031615;28;20317;-78
2022/03/25 00:15:01;;;;;;;14.27;7.47;;;;;;;;;;5031629;28;20689;-78
2022/03/25 00:17:29;;;;;;;9.67;7.70;;;;;;;;;;5031492;28;20289;-79
2022/03/25 00:19:57;;;;;;;14.77;8.50;;;;;;;;;;5031457;28;20234;-78
2022/03/25 00:22:25;;;;;;;11.97;8.00;;;;;;;;;;5031654;28;20195;-78
2022/03/25 00:24:52;;;;;;;7.83;7.03;;;;;;;;;;5031435;28;20199;-79
2022/03/25 00:27:19;;;;;;;12.17;8.60;;;;;;;;;;5031888;28;20676;-78
2022/03/25 00:29:47;;;;;;;13.40;8.63;;;;;;;;;;5031062;28;20226;-78
2022/03/25 00:32:16;;;;;;;13.53;8.80;;;;;;;;;;5032076;28;20628;-79
2022/03/25 00:34:43;;;;;;;13.10;8.67;;;;;;;;;;5031284;28;20203;-79
2022/03/25 00:37:12;;;;;;;11.13;7.47;;;;;;;;;;5031776;28;20226;-78
2022/03/25 00:39:40;;;;;;;19.73;9.80;;;;;;;;;;5031121;28;20611;-79
2022/03/25 00:42:09;;;;;;;12.60;8.77;;;;;;;;;;5030121;28;20675;-78
2022/03/25 00:44:36;;;;;;;11.47;7.97;;;;;;;;;;5029947;28;20203;-78
2022/03/25 00:47:04;;;;;;;12.23;8.70;;;;;;;;;;5031214;28;20584;-78
2022/03/25 00:49:32;;;;;;;10.20;7.73;;;;;;;;;;5030882;28;20719;-78
2022/03/25 00:51:59;;;;;;;9.60;8.10;;;;;;;;;;5031321;28;20738;-78
2022/03/25 00:54:28;;;;;;;11.10;8.63;;;;;;;;;;5031149;28;20664;-78
2022/03/25 00:56:56;;;;;;;14.17;8.60;;;;;;;;;;5031298;28;20200;-78
2022/03/25 00:59:23;;;;;;;8.43;7.50;;;;;;;;;;5030804;28;20195;-78
2022/03/25 01:01:50;;;;;;;12.73;9.43;;;;;;;;;;5031257;28;20237;-78
2022/03/25 01:04:18;;;;;;;14.53;9.07;;;;;;;;;;5031320;28;20561;-79
2022/03/25 01:06:45;;;;;;;8.90;7.77;;;;;;;;;;5033927;28;20286;-78
2022/03/25 01:09:13;;;;;;;11.27;8.50;;;;;;;;;;5034211;28;20230;-79
2022/03/25 01:11:41;;;;;;;14.97;8.73;;;;;;;;;;5034478;28;20199;-79
2022/03/25 01:14:09;;;;;;;12.03;8.20;;;;;;;;;;5034500;28;20245;-78
2022/03/25 01:16:36;;;;;;;10.27;8.67;;;;;;;;;;5034915;28;20230;-79
2022/03/25 01:19:05;;;;;;;12.10;7.93;;;;;;;;;;5034490;28;20667;-79
2022/03/25 01:21:32;;;;;;;14.27;8.27;;;;;;;;;;5034275;28;20199;-78
2022/03/25 01:23:59;;;;;;;9.60;8.60;;;;;;;;;;5034289;28;20245;-79
2022/03/25 01:26:28;;;;;;;10.17;8.43;;;;;;;;;;5034373;28;20289;-79
2022/03/25 01:28:56;;;;;;;9.97;8.93;;;;;;;;;;5033860;28;20317;-79
2022/03/25 01:31:24;;;;;;;15.53;8.80;;;;;;;;;;5034301;28;20246;-79
2022/03/25 01:33:51;;;;;;;13.03;8.60;;;;;;;;;;5034418;28;20234;-79
2022/03/25 01:36:19;;;;;;;13.10;9.50;;;;;;;;;;5034363;28;20385;-79
2022/03/25 01:38:46;;;;;;;13.40;9.40;;;;;;;;;;5034357;28;20226;-78
2022/03/25 01:41:17;;;;;;;12.27;9.93;;;;;;;;;;5033850;28;20252;-79
2022/03/25 01:43:45;;;;;;;17.77;9.43;;;;;;;;;;5034021;28;20245;-79
2022/03/25 01:46:15;;;;;;;14.60;8.43;;;;;;;;;;5033930;28;20202;-79
2022/03/25 01:48:42;;;;;;;12.70;9.07;;;;;;;;;;5033881;28;20202;-79
2022/03/25 01:51:09;;;;;;;10.57;8.93;;;;;;;;;;5034186;28;20203;-79
2022/03/25 01:53:37;;;;;;;13.67;9.43;;;;;;;;;;5033794;28;20583;-78
2022/03/25 01:56:05;;;;;;;12.50;9.10;;;;;;;;;;5033777;28;20237;-79
2022/03/25 01:58:34;;;;;;;13.73;8.57;;;;;;;;;;5033663;28;20252;-78
2022/03/25 02:01:03;;;;;;;12.77;9.43;;;;;;;;;;5033531;28;20199;-78
2022/03/25 02:03:32;;;;;;;11.40;8.37;;;;;;;;;;5033497;28;20199;-79
2022/03/25 02:05:59;;;;;;;12.37;8.63;;;;;;;;;;5033624;28;20209;-78
2022/03/25 02:08:27;;;;;;;13.57;7.93;;;;;;;;;;5033546;28;20199;-79
2022/03/25 02:10:54;;;;;;;12.60;8.70;;;;;;;;;;5033593;28;20218;-79
2022/03/25 02:13:21;;;;;;;12.83;8.50;;;;;;;;;;5033405;28;20262;-78
2022/03/25 02:15:49;;;;;;;11.33;8.60;;;;;;;;;;5033325;28;20209;-78
2022/03/25 02:18:18;;;;;;;12.80;9.47;;;;;;;;;;5033096;28;20573;-79
2022/03/25 02:20:48;;;;;;;11.77;9.43;;;;;;;;;;5033523;28;20195;-78
2022/03/25 02:23:17;;;;;;;15.90;10.03;;;;;;;;;;5033635;28;20575;-78
2022/03/25 02:25:45;;;;;;;13.27;10.37;;;;;;;;;;5033121;28;20289;-78
2022/03/25 02:28:12;;;;;;;13.37;8.53;;;;;;;;;;5033342;28;20202;-78
2022/03/25 02:30:39;;;;;;;14.23;8.83;;;;;;;;;;5032908;28;20222;-78
2022/03/25 02:33:08;;;;;;;14.43;9.63;;;;;;;;;;5033112;28;20293;-79
2022/03/25 02:35:40;;;;;;;11.43;8.43;;;;;;;;;;5032936;28;20198;-79
2022/03/25 02:38:08;;;;;;;14.77;9.27;;;;;;;;;;5032937;28;20625;-79
2022/03/25 02:40:38;;;;;;;14.83;8.90;;;;;;;;;;5032775;28;20206;-79
2022/03/25 02:43:05;;;;;;;14.60;9.67;;;;;;;;;;5032913;28;20624;-79
2022/03/25 02:45:33;;;;;;;14.33;9.57;;;;;;;;;;5032727;28;20256;-79
2022/03/25 02:48:02;;;;;;;13.07;9.03;;;;;;;;;;5032914;28;20202;-78
2022/03/25 02:50:30;;;;;;;12.00;8.57;;;;;;;;;;5032633;28;20229;-79
2022/03/25 02:52:57;;;;;;;13.33;8.97;;;;;;;;;;5032766;28;20201;-78
2022/03/25 02:55:25;;;;;;;12.70;9.67;;;;;;;;;;5032757;28;20698;-78
2022/03/25 02:57:54;;;;;;;12.50;9.73;;;;;;;;;;5032475;28;20257;-78
2022/03/25 03:00:26;;;;;;;12.07;8.67;;;;;;;;;;5032612;28;20289;-78
2022/03/25 03:02:54;;;;;;;13.70;9.63;;;;;;;;;;5032556;28;20194;-78
2022/03/25 03:05:22;;;;;;;14.87;8.93;;;;;;;;;;5032704;28;20210;-78
2022/03/25 03:07:50;;;;;;;15.87;8.73;;;;;;;;;;5032575;28;20195;-78
2022/03/25 03:10:18;;;;;;;14.73;9.47;;;;;;;;;;5032191;28;20309;-78
2022/03/25 03:12:45;;;;;;;13.27;9.57;;;;;;;;;;5032353;28;20261;-78
2022/03/25 03:15:15;;;;;;;14.50;9.03;;;;;;;;;;5032482;28;20302;-79
2022/03/25 03:17:43;;;;;;;11.13;7.97;;;;;;;;;;5032103;28;20198;-78
2022/03/25 03:20:11;;;;;;;17.23;10.07;;;;;;;;;;5032097;28;20198;-78
2022/03/25 03:22:39;;;;;;;10.40;9.13;;;;;;;;;;5032469;28;20671;-78
2022/03/25 03:25:07;;;;;;;13.40;9.07;;;;;;;;;;5032225;28;20583;-79
2022/03/25 03:27:34;;;;;;;14.47;8.43;;;;;;;;;;5031774;28;20198;-78
2022/03/25 03:30:01;;;;;;;12.67;9.13;;;;;;;;;;5031478;28;20232;-78
2022/03/25 03:32:30;;;;;;;13.50;9.60;;;;;;;;;;5032149;28;20205;-78
2022/03/25 03:34:58;;;;;;;13.77;9.23;;;;;;;;;;5031992;28;20238;-78
2022/03/25 03:37:26;;;;;;;14.67;8.63;;;;;;;;;;5032365;28;20225;-78
2022/03/25 03:39:53;;;;;;;13.07;9.30;;;;;;;;;;5031764;28;20197;-78
2022/03/25 03:42:20;;;;;;;17.10;9.57;;;;;;;;;;5031965;28;20285;-78
2022/03/25 03:44:48;;;;;;;12.50;9.60;;;;;;;;;;5031852;28;20670;-78
2022/03/25 03:47:15;;;;;;;12.67;8.07;;;;;;;;;;5032154;28;20585;-78
2022/03/25 03:49:44;;;;;;;13.87;9.63;;;;;;;;;;5031365;28;20313;-78
2022/03/25 03:52:11;;;;;;;14.03;8.90;;;;;;;;;;5031824;28;20194;-78
2022/03/25 03:54:38;;;;;;;10.93;8.43;;;;;;;;;;5031570;28;20198;-79
2022/03/25 03:57:08;;;;;;;13.67;9.10;;;;;;;;;;5032025;28;20194;-79
2022/03/25 03:59:36;;;;;;;14.77;8.87;;;;;;;;;;5031641;28;20607;-79
2022/03/25 04:02:04;;;;;;;12.63;8.30;;;;;;;;;;5031788;28;20687;-79
2022/03/25 04:04:31;;;;;;;10.30;7.70;;;;;;;;;;5031520;28;20209;-79
2022/03/25 04:07:00;;;;;;;12.60;9.40;;;;;;;;;;5031500;28;20194;-79
2022/03/25 04:09:27;;;;;;;18.87;9.07;;;;;;;;;;5031470;28;20248;-78
2022/03/25 04:11:55;;;;;;;21.37;8.83;;;;;;;;;;5031422;28;20231;-78
2022/03/25 04:14:22;;;;;;;14.53;9.03;;;;;;;;;;5031688;28;20221;-78
2022/03/25 04:16:50;;;;;;;12.47;8.40;;;;;;;;;;5031394;28;20201;-78
2022/03/25 04:19:17;;;;;;;18.77;10.13;;;;;;;;;;5031403;28;20210;-78
2022/03/25 04:21:44;;;;;;;15.50;8.23;;;;;;;;;;5031574;28;20191;-78
2022/03/25 04:24:13;;;;;;;13.33;9.03;;;;;;;;;;5031285;28;20199;-79
2022/03/25 04:26:40;;;;;;;10.80;8.47;;;;;;;;;;5031729;28;20588;-79
2022/03/25 04:29:07;;;;;;;11.90;8.77;;;;;;;;;;5031258;28;20209;-79
2022/03/25 04:31:35;;;;;;;8.83;7.53;;;;;;;;;;5031413;28;20233;-79
2022/03/25 04:34:03;;;;;;;13.80;8.60;;;;;;;;;;5031186;28;20667;-79
2022/03/25 04:36:30;;;;;;;12.23;9.33;;;;;;;;;;5031138;28;20205;-79
2022/03/25 04:38:57;;;;;;;9.40;8.47;;;;;;;;;;5031218;28;20224;-79
2022/03/25 04:41:26;;;;;;;12.23;8.27;;;;;;;;;;5035112;28;20199;-79
2022/03/25 04:43:53;;;;;;;13.17;9.13;;;;;;;;;;5034744;28;20741;-78
2022/03/25 04:46:20;;;;;;;9.00;7.90;;;;;;;;;;5035147;28;20683;-78
2022/03/25 04:48:48;;;;;;;10.87;8.23;;;;;;;;;;5034838;28;20672;-79
2022/03/25 04:51:15;;;;;;;13.13;8.23;;;;;;;;;;5034953;28;20706;-80
2022/03/25 04:53:42;;;;;;;10.23;8.73;;;;;;;;;;5031178;28;20735;-80
2022/03/25 04:56:09;;;;;;;11.13;9.47;;;;;;;;;;5034781;28;20373;-80
2022/03/25 04:58:38;;;;;;;25.50;16.70;;;;;;;;;;5034580;28;20202;-80
2022/03/25 05:01:05;;;;;;;10.50;8.93;;;;;;;;;;5034846;28;20689;-80
2022/03/25 05:03:33;;;;;;;18.57;13.43;;;;;;;;;;5034746;28;20195;-79
2022/03/25 05:06:00;;;;;;;14.83;11.30;;;;;;;;;;5034884;28;20257;-79
2022/03/25 05:08:27;;;;;;;12.90;9.03;;;;;;;;;;5034878;28;20198;-79
2022/03/25 05:10:54;;;;;;;17.23;10.07;;;;;;;;;;5034806;28;20218;-79
2022/03/25 05:13:22;;;;;;;12.23;7.97;;;;;;;;;;5034273;28;20237;-79
2022/03/25 05:15:50;;;;;;;10.77;8.40;;;;;;;;;;5034591;28;20202;-79
2022/03/25 05:18:18;;;;;;;13.27;10.23;;;;;;;;;;5034597;28;20202;-79
2022/03/25 05:20:45;;;;;;;11.67;9.33;;;;;;;;;;5034416;28;20195;-79
2022/03/25 05:23:12;;;;;;;16.37;9.20;;;;;;;;;;5034851;28;20211;-79
2022/03/25 05:25:40;;;;;;;19.87;13.10;;;;;;;;;;5034032;28;20205;-79
2022/03/25 05:28:07;;;;;;;14.90;11.10;;;;;;;;;;5034386;28;20293;-79
2022/03/25 05:30:35;;;;;;;15.67;9.97;;;;;;;;;;5034381;28;20230;-79
2022/03/25 05:33:04;;;;;;;12.53;9.97;;;;;;;;;;5034543;28;20223;-78
2022/03/25 05:35:32;;;;;;;12.67;10.13;;;;;;;;;;5034152;28;20392;-78
2022/03/25 05:37:59;;;;;;;15.30;8.93;;;;;;;;;;5034131;28;20199;-79
2022/03/25 05:40:27;;;;;;;15.23;8.60;;;;;;;;;;5034271;28;20282;-79
2022/03/25 05:42:55;;;;;;;13.73;9.27;;;;;;;;;;5034132;28;20293;-79
2022/03/25 05:45:23;;;;;;;14.17;8.10;;;;;;;;;;5033898;28;20200;-79
2022/03/25 05:47:51;;;;;;;12.33;7.90;;;;;;;;;;5033871;28;20195;-79
2022/03/25 05:50:20;;;;;;;9.93;8.37;;;;;;;;;;5033713;28;20222;-79
2022/03/25 05:52:48;;;;;;;11.77;8.63;;;;;;;;;;5033594;28;20260;-79
2022/03/25 05:55:16;;;;;;;13.63;8.97;;;;;;;;;;5033979;28;20281;-79
2022/03/25 05:57:44;;;;;;;10.47;7.90;;;;;;;;;;5033862;28;20598;-79
2022/03/25 06:00:14;;;;;;;11.67;8.43;;;;;;;;;;5033263;28;20277;-79
2022/03/25 06:02:42;;;;;;;11.33;8.03;;;;;;;;;;5034086;28;20198;-79
2022/03/25 06:05:10;;;;;;;11.97;8.63;;;;;;;;;;5033534;28;20560;-78
2022/03/25 06:07:39;;;;;;;33.47;8.97;;;;;;;;;;5033481;28;20285;-79
2022/03/25 06:10:08;;;;;;;13.63;9.30;;;;;;;;;;5033322;28;20293;-79
2022/03/25 06:12:36;;;;;;;17.87;8.80;;;;;;;;;;5033572;28;20238;-79
2022/03/25 06:15:03;;;;;;;14.10;10.33;;;;;;;;;;5033576;28;20582;-80
2022/03/25 06:17:31;;;;;;;13.83;9.63;;;;;;;;;;5033497;28;20199;-79
2022/03/25 06:19:58;;;;;;;13.80;9.90;;;;;;;;;;5033198;28;20237;-79
2022/03/25 06:22:27;;;;;;;19.00;12.23;;;;;;;;;;5033419;28;20195;-79
2022/03/25 06:24:56;;;;;;;12.60;10.10;;;;;;;;;;5032913;28;20833;-79
2022/03/25 06:27:24;;;;;;;13.43;10.10;;;;;;;;;;5033625;28;20202;-79
2022/03/25 06:29:51;;;;;;;13.47;9.87;;;;;;;;;;5033335;28;20195;-79
2022/03/25 06:32:18;;;;;;;14.03;9.23;;;;;;;;;;5033119;28;20229;-79
2022/03/25 06:34:45;;;;;;;12.23;8.40;;;;;;;;;;5033104;28;20624;-80
2022/03/25 06:37:13;;;;;;;16.30;10.10;;;;;;;;;;5033435;28;20198;-79
2022/03/25 06:39:40;;;;;;;12.60;8.50;;;;;;;;;;5032835;28;20194;-79
2022/03/25 06:42:09;;;;;;;14.30;9.03;;;;;;;;;;5033036;28;20198;-79
2022/03/25 06:44:36;;;;;;;15.90;9.50;;;;;;;;;;5032575;28;20203;-79
2022/03/25 06:47:04;;;;;;;18.87;9.73;;;;;;;;;;5033020;28;20230;-79
2022/03/25 06:49:32;;;;;;;11.63;10.03;;;;;;;;;;5032705;28;20199;-79
2022/03/25 06:52:00;;;;;;;12.07;8.93;;;;;;;;;;5032691;28;20315;-79
2022/03/25 06:54:27;;;;;;;14.70;10.23;;;;;;;;;;5032826;28;20248;-79
2022/03/25 06:56:55;;;;;;;13.80;10.20;;;;;;;;;;5033008;28;20284;-79
2022/03/25 06:59:25;;;;;;;16.10;8.97;;;;;;;;;;5032892;28;20223;-79
2022/03/25 07:01:53;;;;;;;20.93;11.30;;;;;;;;;;5032950;28;20281;-79
2022/03/25 07:04:20;;;;;;;15.20;11.73;;;;;;;;;;5031314;28;20236;-79
2022/03/25 07:06:50;;;;;;;18.13;9.70;;;;;;;;;;5032546;28;20248;-79
2022/03/25 07:09:18;;;;;;;13.40;10.20;;;;;;;;;;5032324;28;20205;-79
2022/03/25 07:11:45;;;;;;;14.57;9.97;;;;;;;;;;5032212;28;20230;-79
2022/03/25 07:14:12;;;;;;;13.03;10.40;;;;;;;;;;5032754;28;20218;-78
2022/03/25 07:16:42;;;;;;;14.73;10.63;;;;;;;;;;5032726;28;20609;-78
2022/03/25 07:19:10;;;;;;;11.03;9.03;;;;;;;;;;5032146;28;20245;-78
2022/03/25 07:21:38;;;;;;;19.90;12.33;;;;;;;;;;5032583;28;20549;-79
2022/03/25 07:24:06;;;;;;;13.57;9.80;;;;;;;;;;5032001;28;20217;-78
2022/03/25 07:26:33;;;;;;;18.07;11.37;;;;;;;;;;5032269;28;20199;-79
2022/03/25 07:29:00;;;;;;;14.07;11.40;;;;;;;;;;5031982;28;20210;-79
2022/03/25 07:31:28;;;;;;;16.13;12.37;;;;;;;;;;5031893;28;20222;-78
2022/03/25 07:33:57;;;;;;;16.23;10.53;;;;;;;;;;5031827;28;20294;-78
2022/03/25 07:36:24;;;;;;;15.13;11.50;;;;;;;;;;5032423;28;20289;-79
2022/03/25 07:38:52;;;;;;;19.67;12.97;;;;;;;;;;5031894;28;20290;-78
2022/03/25 07:41:19;;;;;;;21.77;14.90;;;;;;;;;;5032333;28;20277;-79
2022/03/25 07:43:46;;;;;;;24.03;14.90;;;;;;;;;;5031701;28;20293;-78
2022/03/25 07:46:14;;;;;;;27.73;19.97;;;;;;;;;;5031987;28;20198;-78
2022/03/25 07:48:41;;;;;;;24.77;16.93;;;;;;;;;;5031749;28;20199;-78
2022/03/25 07:51:10;;;;;;;20.00;13.50;;;;;;;;;;5031827;28;20232;-78
2022/03/25 07:53:38;;;;;;;16.67;10.93;;;;;;;;;;5031917;28;20292;-78
2022/03/25 07:56:06;;;;;;;15.40;13.03;;;;;;;;;;5031767;28;20202;-78
2022/03/25 07:58:33;;;;;;;15.17;10.80;;;;;;;;;;5031794;28;20278;-78
2022/03/25 08:01:00;;;;;;;16.23;11.90;;;;;;;;;;5032043;28;20625;-78
2022/03/25 08:03:27;;;;;;;15.97;12.60;;;;;;;;;;5031543;28;20668;-79
2022/03/25 08:05:55;;;;;;;16.53;12.70;;;;;;;;;;5031598;28;20198;-79
2022/03/25 08:08:23;;;;;;;16.77;12.90;;;;;;;;;;5032002;28;20199;-78
2022/03/25 08:10:55;;;;;;;15.90;10.77;;;;;;;;;;5031236;28;20202;-78
2022/03/25 08:13:23;;;;;;;16.50;11.03;;;;;;;;;;5031614;28;20325;-78
2022/03/25 08:15:50;;;;;;;17.80;10.80;;;;;;;;;;5034468;28;20198;-78
2022/03/25 08:18:18;;;;;;;13.50;11.00;;;;;;;;;;5035621;28;20612;-79
2022/03/25 08:20:47;;;;;;;16.43;10.40;;;;;;;;;;5035332;28;20237;-78
2022/03/25 08:27:48;;;;;;;12.90;9.80;;;;;;;;;;5035627;28;20286;-78
2022/03/25 08:28:51;;;;;;;19.50;10.67;;;;;;;;;;5035201;28;20313;-78
2022/03/25 08:31:18;;;;;;;15.77;10.40;;;;;;;;;;5035719;28;20599;-78
2022/03/25 08:33:46;;;;;;;21.27;10.63;;;;;;;;;;5035267;28;20207;-78
2022/03/25 08:36:13;;;;;;;14.53;9.20;;;;;;;;;;5035376;28;20722;-78
2022/03/25 08:38:41;;;;;;;12.97;10.60;;;;;;;;;;5035306;28;20203;-79
2022/03/25 08:41:09;;;;;;;12.17;10.43;;;;;;;;;;5035523;28;20225;-79
2022/03/25 08:43:37;;;;;;;13.03;10.73;;;;;;;;;;5035130;28;20245;-79
2022/03/25 08:46:04;;;;;;;15.73;10.77;;;;;;;;;;5035475;28;20576;-79
2022/03/25 08:48:32;;;;;;;19.13;10.30;;;;;;;;;;5035322;28;20682;-79
2022/03/25 08:50:59;;;;;;;16.90;10.77;;;;;;;;;;5035276;28;20195;-79
2022/03/25 08:53:26;;;;;;;19.90;10.13;;;;;;;;;;5035072;28;20197;-79
2022/03/25 08:55:54;;;;;;;13.27;9.60;;;;;;;;;;5035170;28;20284;-79
2022/03/25 08:58:22;;;;;;;13.43;10.60;;;;;;;;;;5034775;28;20206;-79
2022/03/25 09:00:50;;;;;;;16.00;10.33;;;;;;;;;;5034668;28;20291;-79
2022/03/25 09:03:17;;;;;;;10.33;9.00;;;;;;;;;;5034858;28;20201;-79
2022/03/25 09:05:44;;;;;;;15.00;9.43;;;;;;;;;;5034650;28;20193;-79
2022/03/25 09:08:12;;;;;;;16.30;10.47;;;;;;;;;;5034990;28;20198;-78
2022/03/25 09:10:39;;;;;;;16.93;10.57;;;;;;;;;;5034339;28;20237;-79
2022/03/25 09:13:07;;;;;;;18.60;10.03;;;;;;;;;;5034546;28;20245;-79
2022/03/25 09:15:36;;;;;;;16.33;9.60;;;;;;;;;;5034485;28;20203;-79
2022/03/25 09:18:03;;;;;;;15.37;11.50;;;;;;;;;;5034412;28;20294;-79
2022/03/25 09:20:30;;;;;;;15.20;11.40;;;;;;;;;;5034713;28;20585;-79
2022/03/25 09:22:57;;;;;;;12.00;9.23;;;;;;;;;;5034506;28;20209;-79
2022/03/25 09:25:25;;;;;;;13.80;10.77;;;;;;;;;;5034478;28;20623;-79
2022/03/25 09:27:52;;;;;;;12.30;9.20;;;;;;;;;;5033340;28;20203;-79
2022/03/25 09:30:19;;;;;;;16.87;9.97;;;;;;;;;;5034455;28;20194;-79
2022/03/25 09:32:48;;;;;;;13.57;10.40;;;;;;;;;;5034278;28;20714;-79
2022/03/25 09:35:16;;;;;;;34.00;15.70;;;;;;;;;;5033926;28;20680;-79
2022/03/25 09:37:45;;;;;;;15.27;10.70;;;;;;;;;;5034530;28;20202;-79
2022/03/25 09:40:14;;;;;;;20.60;12.03;;;;;;;;;;5034065;28;20230;-79
2022/03/25 09:42:42;;;;;;;29.97;18.07;;;;;;;;;;5033841;28;20198;-80
2022/03/25 09:45:11;;;;;;;30.13;20.20;;;;;;;;;;5033967;28;20290;-79
2022/03/25 09:47:39;;;;;;;22.50;13.23;;;;;;;;;;5034029;28;20294;-79
2022/03/25 09:50:11;;;;;;;17.63;11.23;;;;;;;;;;5033596;28;20209;-79
2022/03/25 09:52:39;;;;;;;15.00;10.57;;;;;;;;;;5033928;28;20206;-79
2022/03/25 09:55:07;;;;;;;14.03;10.27;;;;;;;;;;5034052;28;20281;-79
2022/03/25 09:57:34;;;;;;;23.17;11.13;;;;;;;;;;5034138;28;20762;-79
2022/03/25 10:00:02;;;;;;;29.73;14.20;;;;;;;;;;5033961;28;20660;-79
2022/03/25 10:02:29;;;;;;;16.77;12.60;;;;;;;;;;5033494;28;20563;-79
2022/03/25 10:04:57;;;;;;;18.77;11.63;;;;;;;;;;5033628;28;20234;-79
2022/03/25 10:07:27;;;;;;;22.53;12.27;;;;;;;;;;5034021;28;20203;-79
2022/03/25 10:10:10;;;;;;;12.77;9.80;;;;;;;;;;5033553;28;20258;-79
2022/03/25 10:12:38;;;;;;;12.97;10.47;;;;;;;;;;5033034;28;20236;-79
2022/03/25 10:15:14;;;;;;;16.67;10.93;;;;;;;;;;5033413;28;20208;-80
2022/03/25 10:17:56;;;;;;;16.77;10.40;;;;;;;;;;5034037;28;20202;-79
2022/03/25 10:20:24;;;;;;;15.60;10.57;;;;;;;;;;5033657;28;20551;-79
2022/03/25 10:23:08;;;;;;;17.90;10.50;;;;;;;;;;5033374;28;20707;-79
2022/03/25 10:25:45;;;;;;;30.77;11.60;;;;;;;;;;5033010;28;20224;-79
2022/03/25 10:28:22;;;;;;;18.17;12.33;;;;;;;;;;5033323;28;20184;-80
2022/03/25 10:30:51;;;;;;;13.70;12.00;;;;;;;;;;5033134;28;20188;-79
2022/03/25 10:33:30;;;;;;;17.10;12.07;;;;;;;;;;5033402;28;20224;-79
2022/03/25 10:36:08;;;;;;;21.37;14.53;;;;;;;;;;5032970;28;20198;-79
2022/03/25 10:38:45;;;;;;;17.83;12.77;;;;;;;;;;5032844;28;20198;-79
2022/03/25 10:41:14;;;;;;;13.67;10.83;;;;;;;;;;5033057;28;20736;-79
2022/03/25 10:43:59;;;;;;;21.17;11.03;;;;;;;;;;5032799;28;20223;-79
2022/03/25 10:46:34;;;;;;;13.90;9.33;;;;;;;;;;5033595;28;20207;-79
2022/03/25 10:49:05;;;;;;;15.20;10.23;;;;;;;;;;5032478;28;20242;-79
2022/03/25 10:51:32;;;;;;;13.73;10.03;;;;;;;;;;5033105;28;20641;-78
2022/03/25 10:54:02;;;;;;;13.83;11.00;;;;;;;;;;5032663;28;20978;-78
2022/03/25 10:56:30;;;;;;;10.77;9.67;;;;;;;;;;5032485;28;20228;-79
2022/03/25 10:58:58;;;;;;;16.23;11.70;;;;;;;;;;5033315;28;20208;-79
2022/03/25 11:01:26;;;;;;;11.77;10.57;;;;;;;;;;5033055;28;20207;-79
2022/03/25 11:03:54;;;;;;;14.70;10.00;;;;;;;;;;5032199;28;20206;-79
2022/03/25 11:06:21;;;;;;;15.73;10.23;;;;;;;;;;5033174;28;20228;-78
2022/03/25 11:08:49;;;;;;;13.63;10.83;;;;;;;;;;5032388;28;20293;-79
2022/03/25 11:11:18;;;;;;;11.67;10.23;;;;;;;;;;5032500;28;20230;-78
2022/03/25 11:13:46;;;;;;;12.70;10.60;;;;;;;;;;5031734;28;20331;-78
2022/03/25 11:16:17;;;;;;;11.33;9.57;;;;;;;;;;5032477;28;20215;-78
2022/03/25 11:18:45;;;;;;;8.27;7.47;;;;;;;;;;5032576;28;20195;-78
2022/03/25 11:21:14;;;;;;;11.27;7.67;;;;;;;;;;5032408;28;20259;-79
2022/03/25 11:23:48;;;;;;;16.10;7.03;;;;;;;;;;5031903;28;20202;-78
2022/03/25 11:26:19;;;;;;;9.13;7.50;;;;;;;;;;5032325;28;20193;-80
2022/03/25 11:28:47;;;;;;;10.50;7.73;;;;;;;;;;5032664;28;20195;-79
2022/03/25 11:31:14;;;;;;;13.37;9.63;;;;;;;;;;5032530;28;20201;-78
2022/03/25 11:34:09;;;;;;;9.93;8.33;;;;;;;;;;5031744;28;20611;-78
2022/03/25 11:36:40;;;;;;;8.80;7.90;;;;;;;;;;5032115;28;20563;-78
2022/03/25 11:39:22;;;;;;;9.53;8.47;;;;;;;;;;5031947;28;20241;-78
2022/03/25 11:41:53;;;;;;;9.07;7.80;;;;;;;;;;5031793;28;20227;-78
2022/03/25 11:44:27;;;;;;;13.77;7.83;;;;;;;;;;5032136;28;20187;-78
2022/03/25 11:47:16;;;;;;;9.30;6.77;;;;;;;;;;5032037;28;20189;-79
2022/03/25 11:49:44;;;;;;;10.20;7.10;;;;;;;;;;5028255;28;20650;-78
2022/03/25 11:52:29;;;;;;;9.00;8.10;;;;;;;;;;5031958;28;20249;-79
2022/03/25 11:54:58;;;;;;;12.93;8.20;;;;;;;;;;5031945;28;20285;-78
2022/03/25 11:57:27;;;;;;;13.47;7.50;;;;;;;;;;5031919;28;20205;-79
2022/03/25 11:59:56;;;;;;;12.27;8.43;;;;;;;;;;5031839;28;20296;-78
2022/03/25 12:02:29;;;;;;;18.10;14.03;;;;;;;;;;5031617;28;20234;-79
2022/03/25 12:04:57;;;;;;;19.97;14.53;;;;;;;;;;5031673;28;20274;-79
2022/03/25 12:07:24;;;;;;;14.17;8.47;;;;;;;;;;5032075;28;20230;-78
2022/03/25 12:09:51;;;;;;;15.43;10.23;;;;;;;;;;5031612;28;20286;-78
2022/03/25 12:12:19;;;;;;;13.50;8.33;;;;;;;;;;5031085;28;20237;-79
2022/03/25 12:15:11;;;;;;;15.80;10.90;;;;;;;;;;5031558;28;20213;-79
2022/03/25 12:17:39;;;;;;;16.90;11.97;;;;;;;;;;5031743;28;20277;-78
2022/03/25 12:20:07;;;;;;;8.70;7.20;;;;;;;;;;5031821;28;20256;-79
2022/03/25 12:22:43;;;;;;;9.50;8.07;;;;;;;;;;5031703;28;20218;-78
2022/03/25 12:25:24;;;;;;;9.60;7.43;;;;;;;;;;5031441;28;20187;-78
2022/03/25 12:27:55;;;;;;;10.00;8.03;;;;;;;;;;5031628;28;20233;-79
2022/03/25 12:30:24;;;;;;;17.03;12.93;;;;;;;;;;5031536;28;20199;-79
2022/03/25 12:32:52;;;;;;;8.57;7.07;;;;;;;;;;5031826;28;20227;-78
2022/03/25 12:35:26;;;;;;;9.40;7.03;;;;;;;;;;5031702;28;20577;-79
2022/03/25 12:38:04;;;;;;;11.33;7.53;;;;;;;;;;5031448;28;20238;-79
2022/03/25 12:40:33;;;;;;;13.13;8.30;;;;;;;;;;5031362;28;20643;-79
2022/03/25 12:43:02;;;;;;;13.10;9.50;;;;;;;;;;5031773;28;20195;-79
2022/03/25 12:45:32;;;;;;;15.07;8.77;;;;;;;;;;5031697;28;20217;-79
2022/03/25 12:48:09;;;;;;;10.97;8.43;;;;;;;;;;5031496;28;20285;-79
2022/03/25 12:50:37;;;;;;;8.90;7.73;;;;;;;;;;5031344;28;20186;-79
2022/03/25 12:53:06;;;;;;;9.03;7.60;;;;;;;;;;5031259;28;20702;-79
2022/03/25 12:55:33;;;;;;;12.00;9.03;;;;;;;;;;5031264;28;20205;-79
2022/03/25 12:58:05;;;;;;;10.10;8.07;;;;;;;;;;5031399;28;20294;-79
2022/03/25 13:00:36;;;;;;;13.17;8.63;;;;;;;;;;5031732;28;20207;-79
2022/03/25 13:03:04;;;;;;;8.87;7.40;;;;;;;;;;5034862;28;20683;-79
2022/03/25 13:05:32;;;;;;;11.27;6.97;;;;;;;;;;5035054;28;20298;-78
2022/03/25 13:08:00;;;;;;;10.27;8.67;;;;;;;;;;5034815;28;20199;-78
2022/03/25 13:10:28;;;;;;;15.77;8.67;;;;;;;;;;5034371;28;20253;-78
2022/03/25 13:12:57;;;;;;;12.90;9.47;;;;;;;;;;5034700;28;20242;-78
2022/03/25 13:15:29;;;;;;;11.67;9.70;;;;;;;;;;5035033;28;20268;-78
2022/03/25 13:17:59;;;;;;;12.87;9.30;;;;;;;;;;5034742;28;20190;-78
2022/03/25 13:20:28;;;;;;;10.27;8.20;;;;;;;;;;5034154;28;20213;-78
2022/03/25 13:22:57;;;;;;;14.47;8.80;;;;;;;;;;5034561;28;20206;-78
2022/03/25 13:25:28;;;;;;;11.23;8.00;;;;;;;;;;5034480;28;20289;-78
2022/03/25 13:27:56;;;;;;;9.00;6.97;;;;;;;;;;5034481;28;20286;-78
2022/03/25 13:30:24;;;;;;;11.20;7.63;;;;;;;;;;5033990;28;20238;-78
2022/03/25 13:33:05;;;;;;;10.17;7.17;;;;;;;;;;5034384;28;20222;-78
2022/03/25 13:35:37;;;;;;;9.03;7.50;;;;;;;;;;5034247;28;20205;-78
2022/03/25 13:38:07;;;;;;;15.70;7.90;;;;;;;;;;5034180;28;20230;-78
2022/03/25 13:40:36;;;;;;;12.93;8.70;;;;;;;;;;5034071;28;20214;-78
2022/03/25 13:43:08;;;;;;;12.67;7.60;;;;;;;;;;5034494;28;20277;-78
2022/03/25 13:45:35;;;;;;;10.20;6.83;;;;;;;;;;5033790;28;20668;-78
2022/03/25 13:48:11;;;;;;;7.70;6.93;;;;;;;;;;5034393;28;20199;-78
2022/03/25 13:50:49;;;;;;;7.37;5.73;;;;;;;;;;5033807;28;20651;-78
2022/03/25 13:53:20;;;;;;;6.03;5.37;;;;;;;;;;5034010;28;20284;-78
2022/03/25 13:55:47;;;;;;;9.73;5.60;;;;;;;;;;5033844;28;20278;-78
2022/03/25 13:58:17;;;;;;;7.93;5.47;;;;;;;;;;5033874;28;20194;-79
2022/03/25 14:00:52;;;;;;;6.67;5.63;;;;;;;;;;5034035;28;20199;-78
2022/03/25 14:03:30;;;;;;;6.97;4.70;;;;;;;;;;5034179;28;20619;-78
2022/03/25 14:06:09;;;;;;;5.40;4.03;;;;;;;;;;5033562;28;20655;-78
2022/03/25 14:08:37;;;;;;;9.83;5.23;;;;;;;;;;5033989;28;20578;-78
2022/03/25 14:11:04;;;;;;;5.83;4.90;;;;;;;;;;5033722;28;20198;-78
2022/03/25 14:13:32;;;;;;;4.70;4.20;;;;;;;;;;5032589;28;20320;-78
2022/03/25 14:16:18;;;;;;;6.63;4.20;;;;;;;;;;5033757;28;20210;-78
2022/03/25 14:18:51;;;;;;;4.90;4.17;;;;;;;;;;5033061;28;20190;-78
2022/03/25 14:21:30;;;;;;;6.30;5.60;;;;;;;;;;5033485;28;20632;-78
2022/03/25 14:26:45;;;;;;;6.77;5.07;;;;;;;;;;5033813;28;20189;-78
2022/03/25 14:29:12;;;;;;;6.27;5.27;;;;;;;;;;5033135;28;20667;-78
2022/03/25 14:31:41;;;;;;;6.20;5.60;;;;;;;;;;5033543;28;20285;-78
2022/03/25 14:34:10;;;;;;;7.27;4.93;;;;;;;;;;5032804;28;20323;-78
2022/03/25 14:36:37;;;;;;;5.97;5.13;;;;;;;;;;5033189;28;20206;-78
2022/03/25 14:39:05;;;;;;;10.93;6.13;;;;;;;;;;5033003;28;20293;-78
2022/03/25 14:41:33;;;;;;;9.90;6.83;;;;;;;;;;5033373;28;20202;-78
2022/03/25 14:44:02;;;;;;;9.83;7.30;;;;;;;;;;5032595;28;20236;-78